Sunday, July 22, 2018, 4:26 PM GMT
Back to Local

CYYB, North Bay, Ont.

Location: , , Canada Lat: 46.35
Local Time: 4:26 PM GMT (16:26 GMT) Lon: -79.433
Time Zone: GMT Elev: 1174 ft

Show me the last for .
Show Decoded

2018-07-22 16:00 METAR CYYB 221600Z 07016G26KT 30SM BKN140 24/10 A2994 RMK AC7 SLP136 DENSITY ALT
                 2600FT =
2018-07-22 15:00 METAR CYYB 221500Z 08008G16KT 050V110 30SM BKN150 23/14 A2995 RMK AC7 SLP140
                 DENSITY ALT 2400FT =
2018-07-22 14:00 METAR CYYB 221400Z 06011G18KT 040V100 30SM BKN150 OVC180 22/14 A2996 RMK AC6AC2
                 SLP143 DENSITY ALT 2300FT =
2018-07-22 13:00 METAR CYYB 221300Z 06010KT 020V080 20SM BKN160 OVC210 21/14 A2996 RMK AC6CI2
                 SLP146 DENSITY ALT 2100FT =
2018-07-22 12:00 METAR CYYB 221200Z 05008KT 20SM BKN160 OVC210 20/13 A2997 RMK AC6CI2 SLP148
                 DENSITY ALT 2100FT =
2018-07-22 11:00 METAR CYYB 221100Z 05007KT 20SM BKN160 OVC200 20/13 A2997 RMK AC6CI2 SLP148
                 DENSITY ALT 2100FT =
2018-07-22 10:00 METAR CYYB 221000Z AUTO 06007KT 9SM FEW120 BKN150 OVC180 20/12 A2998 RMK SLP149
                 DENSITY ALT 2000FT =
2018-07-22 09:00 METAR CYYB 220900Z AUTO 05005KT 9SM SCT100 SCT140 BKN170 OVC240 21/12 A2997 RMK
                 SLP148 DENSITY ALT 2000FT =
2018-07-22 08:00 METAR CYYB 220800Z AUTO 07006KT 9SM BKN100 OVC130 21/11 A2998 RMK SLP149 DENSITY
                 ALT 2100FT =
2018-07-22 07:38 METAR CYYB 220738Z AUTO 08005KT 9SM BKN100 OVC120 21/11 A2998 RMK SLP151 DENSITY
                 ALT 2100FT =
2018-07-22 07:24 METAR CYYB 220724Z AUTO 08005KT 9SM -RA BKN110 OVC130 21/11 A2999 RMK SLP153
                 DENSITY ALT 2100FT =
2018-07-22 07:00 METAR CYYB 220700Z AUTO 05006KT 9SM SCT090 BKN110 OVC130 21/10 A2999 RMK SLP154
                 DENSITY ALT 2100FT =
2018-07-22 06:00 METAR CYYB 220600Z AUTO 04005KT 9SM BKN120 OVC140 22/08 A3000 RMK SLP157 DENSITY
                 ALT 2100FT =
2018-07-22 05:45 METAR CYYB 220545Z AUTO 04006KT 9SM SCT100 OVC120 21/09 A3000 RMK SLP157 DENSITY
                 ALT 2100FT =
2018-07-22 05:32 METAR CYYB 220532Z AUTO 05007KT 9SM -RA BKN100 OVC130 22/09 A3000 RMK SLP157
                 DENSITY ALT 2100FT =
2018-07-22 05:00 METAR CYYB 220500Z AUTO 05006KT 9SM FEW110 OVC130 21/09 A3000 RMK SLP157 DENSITY
                 ALT 2100FT =
2018-07-22 04:47 METAR CYYB 220447Z AUTO 06006KT 9SM -RA OVC130 22/09 A3001 RMK SLP160 DENSITY
                 ALT 2100FT =
2018-07-22 04:00 METAR CYYB 220400Z AUTO 07004KT 9SM BKN130 OVC150 22/08 A3001 RMK SLP159 DENSITY
                 ALT 2100FT =
2018-07-22 03:00 METAR CYYB 220300Z AUTO 07007KT 9SM BKN160 OVC180 23/07 A3001 RMK SLP161 DENSITY
                 ALT 2300FT =
2018-07-22 02:00 METAR CYYB 220200Z 08007KT 15SM SCT160 BKN260 22/09 A3001 RMK AC4CI3 LAST STFD
                 OBS/NEXT 221100 UTC SLP160 DENSITY ALT 2300FT =
2018-07-22 01:00 METAR CYYB 220100Z 07005KT 30SM FEW150 BKN260 24/09 A2999 RMK AC2CI5 SLP155
                 DENSITY ALT 2500FT =
2018-07-22 00:00 METAR CYYB 220000Z 15009G15KT 110V180 30SM SCT150 BKN260 26/11 A2997 RMK AC3CI4
                 SLP148 DENSITY ALT 2800FT =
2018-07-21 23:00 METAR CYYB 212300Z 18010KT 30SM BKN160 BKN260 27/12 A2997 RMK AC5CI2 SLP148
                 DENSITY ALT 2800FT =
2018-07-21 22:00 METAR CYYB 212200Z 16011G20KT 30SM SCT150 BKN190 BKN260 28/11 A2997 RMK
                 AC4AC2CI1 SLP147 DENSITY ALT 2900FT =
2018-07-21 21:00 METAR CYYB 212100Z 17010G16KT 120V180 30SM FEW060 BKN170 BKN240 27/11 A2997 RMK
                 CU1AC4CI2 SLP147 DENSITY ALT 2900FT =
2018-07-21 20:00 METAR CYYB 212000Z 16013KT 120V190 30SM FEW060 BKN170 BKN220 28/13 A2997 RMK
                 CU2AC3CI2 SLP146 DENSITY ALT 3000FT =
2018-07-21 19:00 METAR CYYB 211900Z 15013G21KT 30SM FEW060 BKN200 BKN260 28/11 A2998 RMK
                 CU2CI3CI2 SLP148 DENSITY ALT 2900FT =
2018-07-21 18:00 METAR CYYB 211800Z 11015G20KT 30SM FEW050 SCT200 BKN240 28/12 A2998 RMK
                 CU1CI2CI4 SLP150 DENSITY ALT 2900FT =
2018-07-21 17:00 METAR CYYB 211700Z 14014G20KT 20SM FEW050 SCT180 OVC280 26/14 A2999 RMK
                 CU1AC3CI4 SLP152 DENSITY ALT 2800FT =

Support USWX by starting your Amazon purchase here.